< < Back
Terminal Aerodrome Forecast


Current Version              Previous Versions:   1  2  3  4  5  6  7  8  9  

Terminal Aerodrome Forecast

253
FTUS42 KMLB 312300
TAFDAB
TAF
KDAB 312320Z 0100/0124 13004KT P6SM FEW040 FEW250
     FM010200 VRB02KT P6SM FEW030
     FM011400 11005KT P6SM FEW025 FEW250=

Latest METAR

435
SAUS80 KWBC 011100 RRG
MTRDAB
METAR KDAB 011053Z 00000KT 8SM FEW250 24/23 A3009 RMK AO2 SLP190
T02390233


USA.gov is the U.S. government's official web portal to all federal, state and local government web resources and services.